Featherstone, United Kingdom
Current Conditions -  °F | °C
As of 4:50 AM on Friday 31 Oct 2014 (Local Time) from EGBB Reporting Station
Haze Haze  
Wind Chill: 15°   Ceiling: 700
Heat Index: 15°   Visibility: 2.1mi
Dew Point: 14°   Wind: 7mph
Humidity: 94%   Direction: 160°SSE
Pressure: 29.97"   Gusts: NA
Location:  52.64°N, 2.09°W
Report Text: EGBB 310450Z 16006KT 3500 HZ BKN007 BKN012 15/14 Q1015
Loading
Personal Weather Stations






























Interactive Weather Map
Tropical Storm Tracking
New forecast layout! Learn more

10-Day Weather Forecast

Advertisements
Track Severe Weather on mobile